Time;durP1;ratioP1;P1;durP2;ratioP2;P2;SDS_P1;SDS_P2;PMS_P1;PMS_P2;Temp;Humidity;BMP_temperature;BMP_pressure;BME280_temperature;BME280_humidity;BME280_pressure;Samples;Min_cycle;Max_cycle;Signal;HPM_P1;HPM_P2
2022/10/02 00:00:24;;;;;;;;;4.33;1.67;;;;;17.97;62.93;101461.69;5036567;28;46645;-68
2022/10/02 00:03:05;;;;;;;;;2.67;2.67;;;;;17.71;62.68;101408.19;5030867;28;45467;-68
2022/10/02 00:05:40;;;;;;;;;8.67;4.00;;;;;18.04;63.13;101462.69;5028724;28;45532;-68
2022/10/02 00:08:18;;;;;;;;;3.00;2.33;;;;;18.03;63.19;101465.56;5037411;28;45330;-69
2022/10/02 00:10:52;;;;;;;;;5.67;4.00;;;;;18.00;63.46;101468.56;5037178;28;45637;-68
2022/10/02 00:13:41;;;;;;;;;4.00;4.00;;;;;17.84;63.92;101440.75;5039445;28;45550;-70
2022/10/02 00:16:18;;;;;;;;;4.33;4.33;;;;;17.89;64.19;101449.13;5038841;28;45296;-67
2022/10/02 00:18:46;;;;;;;;;3.00;2.00;;;;;17.43;64.70;101378.19;5036925;28;45219;-68
2022/10/02 00:21:20;;;;;;;;;4.00;2.33;;;;;17.56;64.66;101401.81;5035034;28;47913;-67
2022/10/02 00:23:51;;;;;;;;;3.67;3.33;;;;;17.97;64.68;101475.13;5035156;28;45321;-67
2022/10/02 00:26:29;;;;;;;;;4.67;2.33;;;;;17.96;65.22;101467.25;5043193;28;45522;-67
2022/10/02 00:29:15;;;;;;;;;5.00;4.00;;;;;17.94;65.31;101470.13;5029593;28;45154;-68
2022/10/02 00:32:11;;;;;;;;;6.00;3.33;;;;;17.97;65.37;101480.53;5035190;28;46556;-68
2022/10/02 00:34:58;;;;;;;;;2.00;2.00;;;;;17.97;65.51;101467.06;5035917;28;45507;-68
2022/10/02 00:38:09;;;;;;;;;7.67;3.67;;;;;17.97;65.69;101460.84;5036735;28;45175;-68
2022/10/02 00:40:46;;;;;;;;;1.33;1.33;;;;;17.83;65.96;101449.00;5031742;28;45521;-70
2022/10/02 00:43:30;;;;;;;;;3.00;3.00;;;;;18.00;66.04;101471.25;5041790;28;46200;-68
2022/10/02 00:46:17;;;;;;;;;2.00;2.00;;;;;18.02;65.92;101488.06;5028746;28;45278;-67
2022/10/02 00:49:03;;;;;;;;;3.00;2.00;;;;;18.04;66.16;101480.69;5027445;28;45848;-68
2022/10/02 00:51:35;;;;;;;;;2.67;2.67;;;;;17.96;66.28;101464.56;5036766;28;45739;-73
2022/10/02 00:54:22;;;;;;;;;4.00;1.00;;;;;18.00;66.36;101477.47;5029580;28;45278;-68
2022/10/02 00:57:10;;;;;;;;;2.33;1.00;;;;;18.01;66.82;101484.53;5034521;28;46418;-69
2022/10/02 01:00:02;;;;;;;;;3.00;3.00;;;;;17.98;66.55;101484.03;5036178;28;45498;-69
2022/10/02 01:02:30;;;;;;;;;2.00;2.00;;;;;18.04;66.78;101488.75;5039366;28;45647;-68
2022/10/02 01:04:57;;;;;;;;;3.67;2.00;;;;;17.49;66.94;101395.47;5035394;28;46428;-69
2022/10/02 01:07:23;;;;;;;;;3.00;3.00;;;;;18.05;67.37;101491.25;5035860;28;45493;-68
2022/10/02 01:09:48;;;;;;;;;1.33;1.33;;;;;18.01;67.01;101470.25;5035787;28;45486;-68
2022/10/02 01:12:14;;;;;;;;;2.67;2.00;;;;;18.06;67.61;101482.19;5036317;28;45562;-68
2022/10/02 01:14:39;;;;;;;;;2.00;2.00;;;;;17.50;68.65;101394.44;5035427;28;45547;-68
2022/10/02 01:17:18;;;;;;;;;3.00;1.67;;;;;18.04;68.90;101486.06;5035386;28;45522;-69
2022/10/02 01:19:43;;;;;;;;;4.00;3.00;;;;;18.04;69.53;101483.38;5033731;28;45233;-69
2022/10/02 01:22:18;;;;;;;;;4.33;2.67;;;;;18.01;69.55;101478.31;5036321;28;45169;-67
2022/10/02 01:24:54;;;;;;;;;4.00;3.00;;;;;17.91;69.86;101457.84;5035653;28;46618;-68
2022/10/02 01:27:22;;;;;;;;;3.00;3.00;;;;;17.91;70.35;101467.78;5035791;28;45275;-68
2022/10/02 01:29:54;;;;;;;;;2.67;2.67;;;;;17.79;70.69;101459.22;5035393;28;45424;-68
2022/10/02 01:32:22;;;;;;;;;2.00;2.00;;;;;17.91;71.43;101484.75;5035799;28;45490;-68
2022/10/02 01:34:47;;;;;;;;;3.67;2.67;;;;;17.90;71.72;101477.69;5035587;28;46806;-67
2022/10/02 01:37:12;;;;;;;;;1.75;1.50;;;;;17.79;72.04;101459.22;5025826;28;45558;-67
2022/10/02 01:39:39;;;;;;;;;2.67;2.00;;;;;17.91;72.57;101478.53;5035570;28;45488;-68
2022/10/02 01:42:04;;;;;;;;;2.00;2.00;;;;;17.88;72.36;101463.59;5036276;28;45215;-69
2022/10/02 01:44:31;;;;;;;;;2.00;2.00;;;;;17.85;72.97;101461.25;5038915;28;45779;-68
2022/10/02 01:47:06;;;;;;;;;2.00;2.00;;;;;17.96;72.66;101459.16;5029002;28;45625;-70
2022/10/02 01:49:43;;;;;;;;;2.00;2.00;;;;;17.96;72.69;101478.00;5038560;28;45451;-68
2022/10/02 01:52:24;;;;;;;;;2.00;2.00;;;;;17.98;72.68;101473.28;5038711;28;45641;-68
2022/10/02 01:55:24;;;;;;;;;3.00;3.00;;;;;17.93;73.09;101463.88;5037098;28;46595;-67
2022/10/02 01:58:10;;;;;;;;;2.33;2.00;;;;;17.92;73.41;101464.91;5037364;28;46048;-67
2022/10/02 02:01:04;;;;;;;;;4.67;1.00;;;;;17.31;73.22;101361.56;5038897;28;45565;-68
2022/10/02 02:03:48;;;;;;;;;3.00;1.00;;;;;17.90;73.43;101460.72;5032823;28;46646;-66
2022/10/02 02:06:28;;;;;;;;;1.00;1.00;;;;;17.89;73.57;101467.13;5036999;28;47574;-68
2022/10/02 02:09:20;;;;;;;;;4.00;2.00;;;;;17.84;74.09;101462.25;5038149;28;45502;-68
2022/10/02 02:11:56;;;;;;;;;2.00;2.00;;;;;17.82;73.39;101466.97;5034629;28;45496;-67
2022/10/02 02:14:31;;;;;;;;;4.00;3.00;;;;;17.85;74.20;101457.72;5031418;28;45403;-67
2022/10/02 02:17:22;;;;;;;;;1.00;1.00;;;;;17.87;73.87;101455.69;5038311;28;45663;-69
2022/10/02 02:19:55;;;;;;;;;3.00;2.00;;;;;17.83;74.41;101449.81;5038649;28;45527;-67
2022/10/02 02:22:28;;;;;;;;;1.33;1.33;;;;;17.49;74.48;101387.38;5030938;28;45500;-69
2022/10/02 02:24:59;;;;;;;;;1.33;1.33;;;;;17.87;74.91;101451.16;5038445;28;45699;-74
2022/10/02 02:27:30;;;;;;;;;1.00;1.00;;;;;17.79;74.94;101432.34;5030484;28;45782;-68
2022/10/02 02:30:04;;;;;;;;;2.00;2.00;;;;;17.75;74.90;101425.63;5037485;28;45448;-68
2022/10/02 02:32:35;;;;;;;;;2.00;2.00;;;;;17.63;75.12;101402.81;5038305;28;45274;-67
2022/10/02 02:35:07;;;;;;;;;3.33;3.00;;;;;17.80;75.43;101420.56;5036877;28;45517;-68
2022/10/02 02:37:36;;;;;;;;;3.00;3.00;;;;;17.82;75.75;101421.25;5021760;28;46476;-68
2022/10/02 02:40:14;;;;;;;;;1.00;1.00;;;;;17.77;75.53;101412.84;5038648;28;45342;-69
2022/10/02 02:42:55;;;;;;;;;2.00;2.00;;;;;17.92;75.64;101435.31;5039420;28;45463;-67
2022/10/02 02:45:26;;;;;;;;;2.00;2.00;;;;;17.84;75.81;101423.75;5039484;28;45286;-69
2022/10/02 02:48:05;;;;;;;;;3.33;2.00;;;;;17.67;75.67;101387.16;5038603;28;46571;-67
2022/10/02 02:50:30;;;;;;;;;3.33;2.00;;;;;17.94;75.63;101425.22;5030265;28;45567;-67
2022/10/02 02:53:02;;;;;;;;;2.00;2.00;;;;;17.96;75.65;101421.50;5038156;28;46693;-69
2022/10/02 02:55:32;;;;;;;;;6.00;2.00;;;;;17.82;75.60;101404.25;5029713;28;45531;-68
2022/10/02 02:58:03;;;;;;;;;2.00;2.00;;;;;17.85;75.33;101412.81;5037745;28;47602;-67
2022/10/02 03:00:28;;;;;;;;;1.67;1.00;;;;;17.92;76.00;101421.88;5037450;28;45583;-68
2022/10/02 03:02:54;;;;;;;;;4.00;2.33;;;;;17.97;75.49;101423.19;5032745;28;45327;-69
2022/10/02 03:05:21;;;;;;;;;1.00;1.00;;;;;17.87;75.88;101402.72;5036005;28;45550;-67
2022/10/02 03:08:01;;;;;;;;;3.00;1.67;;;;;17.92;75.83;101412.94;5039077;28;47448;-68
2022/10/02 03:10:32;;;;;;;;;2.00;2.00;;;;;17.92;76.11;101408.41;5038519;28;45164;-68
2022/10/02 03:13:25;;;;;;;;;2.00;2.00;;;;;17.88;76.60;101414.31;5037469;28;45525;-68
2022/10/02 03:16:12;;;;;;;;;3.33;2.00;;;;;17.82;76.95;101410.50;5035624;28;45348;-67
2022/10/02 03:18:47;;;;;;;;;3.67;2.67;;;;;17.83;76.79;101409.47;5037084;28;46493;-68
2022/10/02 03:21:26;;;;;;;;;2.00;2.00;;;;;17.25;77.30;101321.97;5037594;28;45408;-67
2022/10/02 03:24:05;;;;;;;;;3.00;2.00;;;;;17.76;77.30;101405.78;5052144;28;45230;-68
2022/10/02 03:27:28;;;;;;;;;2.00;1.00;;;;;17.74;77.75;101410.50;5037215;28;45538;-68
2022/10/02 03:30:05;;;;;;;;;2.00;2.00;;;;;17.74;77.97;101398.91;4983492;28;47581;-70
2022/10/02 03:32:33;;;;;;;;;1.67;1.67;;;;;17.72;77.94;101399.09;5065994;28;46383;-68
2022/10/02 03:35:00;;;;;;;;;2.67;2.67;;;;;17.72;77.78;101404.47;5029426;28;45266;-67
2022/10/02 03:37:27;;;;;;;;;1.00;1.00;;;;;17.68;78.14;101384.31;5037562;28;45271;-68
2022/10/02 03:39:56;;;;;;;;;2.50;2.50;;;;;17.76;77.87;101402.25;5036610;28;46726;-68
2022/10/02 03:42:25;;;;;;;;;1.00;1.00;;;;;17.77;77.78;101402.09;5036944;28;45527;-69
2022/10/02 03:44:50;;;;;;;;;3.00;3.00;;;;;17.77;78.14;101399.41;5036702;28;45335;-67
2022/10/02 03:47:15;;;;;;;;;2.00;2.00;;;;;17.66;78.34;101383.63;5037518;28;45266;-68
2022/10/02 03:49:41;;;;;;;;;1.25;1.25;;;;;17.67;78.32;101379.09;5036969;28;45538;-68
2022/10/02 03:52:06;;;;;;;;;1.00;1.00;;;;;17.77;78.31;101399.41;5036853;28;45463;-67
2022/10/02 03:54:36;;;;;;;;;1.00;1.00;;;;;17.78;78.34;101397.53;5037567;28;45199;-68
2022/10/02 03:57:10;;;;;;;;;1.00;1.00;;;;;17.67;78.76;101390.69;5029861;28;45361;-68
2022/10/02 03:59:54;;;;;;;;;1.00;1.00;;;;;17.78;78.74;101387.63;5032784;28;46540;-68
2022/10/02 04:02:39;;;;;;;;;1.00;0.00;;;;;17.68;78.45;101372.72;5036701;28;45298;-67
2022/10/02 04:05:25;;;;;;;;;4.33;2.67;;;;;17.80;79.03;101393.66;5064786;28;45367;-69
2022/10/02 04:07:58;;;;;;;;;1.67;1.33;;;;;17.78;78.83;101387.63;5062270;28;45427;-67
2022/10/02 04:10:27;;;;;;;;;1.67;1.67;;;;;17.84;78.45;101397.69;5067378;28;46643;-69
2022/10/02 04:12:58;;;;;;;;;0.00;0.00;;;;;17.67;78.79;101371.03;5070833;28;45479;-68
2022/10/02 04:15:31;;;;;;;;;0.67;0.67;;;;;17.85;78.88;101399.38;5065400;28;45487;-66
2022/10/02 04:18:18;;;;;;;;;0.00;0.00;;;;;17.57;78.61;101352.41;5065873;28;45202;-67
2022/10/02 04:21:08;;;;;;;;;0.67;0.67;;;;;17.66;78.35;101363.97;5047569;28;46518;-67
2022/10/02 04:23:51;;;;;;;;;1.00;0.00;;;;;17.83;78.42;101392.50;5057010;28;45553;-67
2022/10/02 04:26:24;;;;;;;;;0.00;0.00;;;;;17.78;78.79;101387.63;5064983;28;45434;-67
2022/10/02 04:29:01;;;;;;;;;1.00;1.00;;;;;17.79;78.99;101389.31;5075202;28;45276;-67
2022/10/02 04:31:27;;;;;;;;;0.00;0.00;;;;;17.18;78.72;101288.72;5065247;28;46343;-67
2022/10/02 04:33:59;;;;;;;;;0.50;0.50;;;;;17.70;79.08;101381.47;5068028;28;45361;-67
2022/10/02 04:36:42;;;;;;;;;0.00;0.00;;;;;17.71;79.17;101386.66;5076698;28;45473;-68
2022/10/02 04:39:27;;;;;;;;;0.00;0.00;;;;;17.83;79.05;101396.03;5058053;28;45504;-67
2022/10/02 04:41:58;;;;;;;;;0.00;0.00;;;;;17.82;79.20;101405.13;5064231;28;45870;-67
2022/10/02 04:44:41;;;;;;;;;0.00;0.00;;;;;17.83;79.29;101406.78;5064102;28;45439;-67
2022/10/02 04:47:09;;;;;;;;;0.00;0.00;;;;;17.82;79.03;101415.88;5064615;28;45189;-68
2022/10/02 04:49:53;;;;;;;;;0.00;0.00;;;;;17.84;78.99;101408.47;5056300;28;45324;-67
2022/10/02 04:52:48;;;;;;;;;0.00;0.00;;;;;17.85;78.67;101410.13;5056452;28;46821;-67
2022/10/02 04:55:34;;;;;;;;;0.00;0.00;;;;;17.74;78.88;101394.38;5060013;28;45316;-68
2022/10/02 04:58:08;;;;;;;;;0.00;0.00;;;;;17.88;78.72;101406.25;5075711;28;45252;-68
2022/10/02 05:01:07;;;;;;;;;0.00;0.00;;;;;17.88;78.86;101408.94;5062712;28;45639;-68
2022/10/02 05:03:49;;;;;;;;;0.00;0.00;;;;;17.86;78.63;101411.81;5053026;28;49023;-68
2022/10/02 05:06:15;;;;;;;;;0.00;0.00;;;;;17.81;78.68;101416.03;5063861;28;45424;-68
2022/10/02 05:08:46;;;;;;;;;0.00;0.00;;;;;17.79;78.58;101413.50;5062408;28;45490;-67
2022/10/02 05:11:27;;;;;;;;;0.00;0.00;;;;;17.71;78.77;101407.34;5073000;28;45297;-68
2022/10/02 05:14:13;;;;;;;;;0.00;0.00;;;;;17.72;79.21;101420.59;5064333;28;46416;-68
2022/10/02 05:17:18;;;;;;;;;0.00;0.00;;;;;17.68;78.42;101413.91;5068389;28;45543;-68
2022/10/02 05:20:09;;;;;;;;;0.00;0.00;;;;;17.70;78.74;101419.09;5063796;28;45491;-68
2022/10/02 05:22:53;;;;;;;;;1.00;0.00;;;;;17.66;78.90;101412.38;5068253;28;45679;-68
2022/10/02 05:26:01;;;;;;;;;1.00;1.00;;;;;17.50;78.31;101395.28;5070493;28;46580;-75
2022/10/02 05:28:36;;;;;;;;;0.00;0.00;;;;;17.62;78.39;101420.78;5070598;28;45260;-68
2022/10/02 05:31:30;;;;;;;;;0.00;0.00;;;;;17.61;78.71;101426.31;5066506;28;45412;-69
2022/10/02 05:34:15;;;;;;;;;0.00;0.00;;;;;17.44;78.17;101398.66;5016602;28;45645;-68
2022/10/02 05:36:54;;;;;;;;;0.00;0.00;;;;;17.46;78.58;101401.19;5069200;28;45830;-69
2022/10/02 05:39:32;;;;;;;;;0.00;0.00;;;;;17.50;78.53;101422.16;5063709;28;45321;-68
2022/10/02 05:42:27;;;;;;;;;0.00;0.00;;;;;17.48;78.57;101417.97;5059927;28;45367;-68
2022/10/02 05:45:01;;;;;;;;;0.00;0.00;;;;;16.48;78.60;101267.06;5067635;28;45578;-67
2022/10/02 05:47:30;;;;;;;;;0.00;0.00;;;;;17.33;78.82;101415.16;5067822;28;45559;-69
2022/10/02 05:50:02;;;;;;;;;0.00;0.00;;;;;17.30;78.66;101410.97;5066185;28;45462;-68
2022/10/02 05:52:41;;;;;;;;;0.00;0.00;;;;;17.35;78.76;101423.88;5059254;28;45262;-67
2022/10/02 05:55:18;;;;;;;;;0.00;0.00;;;;;17.34;78.67;101427.56;5067652;28;45439;-67
2022/10/02 05:58:00;;;;;;;;;0.00;0.00;;;;;17.26;79.22;101431.13;5060966;28;45843;-68
2022/10/02 06:00:44;;;;;;;;;0.00;0.00;;;;;16.57;79.08;101327.75;5064676;28;45332;-67
2022/10/02 06:03:30;;;;;;;;;0.00;0.00;;;;;17.17;79.28;101439.38;5057743;28;45327;-68
2022/10/02 06:06:13;;;;;;;;;1.00;1.00;;;;;17.27;79.37;101445.41;5038739;28;45416;-68
2022/10/02 06:08:47;;;;;;;;;0.00;0.00;;;;;17.26;79.26;101438.34;5038338;28;45534;-69
2022/10/02 06:11:59;;;;;;;;;0.00;0.00;;;;;17.33;79.38;101444.72;5030316;28;45421;-67
2022/10/02 06:14:32;;;;;;;;;0.00;0.00;;;;;17.39;79.11;101445.88;5031485;28;45531;-68
2022/10/02 06:17:03;;;;;;;;;1.00;0.00;;;;;17.42;78.86;101442.84;5039329;28;45289;-68
2022/10/02 06:19:51;;;;;;;;;1.00;0.00;;;;;17.39;78.92;101440.50;5038906;28;45777;-67
2022/10/02 06:22:20;;;;;;;;;0.00;0.00;;;;;17.38;79.08;101442.34;5038080;28;45624;-68
2022/10/02 06:24:58;;;;;;;;;0.00;0.00;;;;;17.39;78.80;101440.50;5038566;28;45487;-68
2022/10/02 06:27:39;;;;;;;;;0.00;0.00;;;;;17.41;78.91;101446.53;5031485;28;45585;-68
2022/10/02 06:30:09;;;;;;;;;2.33;2.33;;;;;17.36;79.29;101435.47;5037966;28;45870;-69
2022/10/02 06:33:08;;;;;;;;;0.00;0.00;;;;;17.42;79.48;101437.47;5040738;28;45706;-69
2022/10/02 06:35:42;;;;;;;;;0.00;0.00;;;;;17.49;79.27;101446.53;5032896;28;45408;-69
2022/10/02 06:38:22;;;;;;;;;0.00;0.00;;;;;17.62;78.88;101449.53;5038740;28;45301;-68
2022/10/02 06:40:59;;;;;;;;;3.00;2.00;;;;;17.69;78.35;101453.22;5038067;28;46601;-69
2022/10/02 06:44:01;;;;;;;;;0.67;0.00;;;;;17.79;77.96;101445.78;5020444;28;45470;-72
2022/10/02 06:46:48;;;;;;;;;1.25;0.00;;;;;17.82;77.66;101452.66;5030122;28;45521;-69
2022/10/02 06:49:29;;;;;;;;;0.00;0.00;;;;;17.96;77.32;101457.31;5038150;28;45226;-68
2022/10/02 06:52:03;;;;;;;;;0.00;0.00;;;;;18.03;77.27;101452.09;5036784;28;47921;-69
2022/10/02 06:54:47;;;;;;;;;0.00;0.00;;;;;18.07;77.13;101454.25;5035146;28;45334;-69
2022/10/02 06:57:33;;;;;;;;;2.00;0.00;;;;;18.00;76.93;101436.28;5038202;28;45264;-70
2022/10/02 07:00:13;;;;;;;;;0.00;0.00;;;;;18.14;76.95;101451.69;5031183;28;45357;-68
2022/10/02 07:02:44;;;;;;;;;0.00;0.00;;;;;18.15;77.13;101453.38;5030941;28;46578;-69
2022/10/02 07:05:16;;;;;;;;;1.00;0.00;;;;;18.15;76.76;101442.59;5059451;28;45311;-71
2022/10/02 07:08:03;;;;;;;;;0.00;0.00;;;;;18.25;76.80;101454.00;5060719;28;45364;-67
2022/10/02 07:10:41;;;;;;;;;0.00;0.00;;;;;18.31;76.52;101450.59;5060798;28;45528;-76
2022/10/02 07:13:12;;;;;;;;;0.00;0.00;;;;;18.34;76.36;101444.84;5067559;28;45887;-69
2022/10/02 07:15:56;;;;;;;;;0.00;0.00;;;;;18.39;76.18;101445.13;5068591;28;45392;-74
2022/10/02 07:18:27;;;;;;;;;0.00;0.00;;;;;18.50;75.92;101438.53;5076538;28;45485;-70
2022/10/02 07:21:08;;;;;;;;;0.00;0.00;;;;;18.60;75.35;101440.97;5058648;28;45449;-71
2022/10/02 07:23:54;;;;;;;;;0.00;0.00;;;;;18.72;74.63;101436.88;5066995;28;45792;-67
2022/10/02 07:26:36;;;;;;;;;0.00;0.00;;;;;18.82;73.92;101445.53;5060783;28;45879;-68
2022/10/02 07:29:21;;;;;;;;;1.00;0.00;;;;;19.08;73.09;101437.91;5063180;28;45503;-67
2022/10/02 07:32:11;;;;;;;;;2.00;0.00;;;;;19.30;72.32;101421.88;5058226;28;45520;-70
2022/10/02 07:35:08;;;;;;;;;0.00;0.00;;;;;19.60;70.60;101447.00;5072476;28;45743;-70
2022/10/02 07:38:00;;;;;;;;;0.00;0.00;;;;;19.78;69.50;101449.34;5065147;28;45261;-69
2022/10/02 07:40:46;;;;;;;;;0.00;0.00;;;;;19.90;68.98;101461.34;5070000;28;45556;-73
2022/10/02 07:43:45;;;;;;;;;0.00;0.00;;;;;19.94;68.43;101457.22;5053997;28;45421;-70
2022/10/02 07:46:44;;;;;;;;;0.00;0.00;;;;;19.90;68.14;101461.34;5071883;28;46389;-72
2022/10/02 07:49:35;;;;;;;;;0.75;0.75;;;;;19.53;67.46;101390.25;5051142;28;45431;-71
2022/10/02 07:52:26;;;;;;;;;0.00;0.00;;;;;19.92;67.20;101461.97;5064017;28;45563;-69
2022/10/02 07:55:08;;;;;;;;;0.00;0.00;;;;;19.96;66.99;101461.41;5064829;28;45666;-71
2022/10/02 07:57:52;;;;;;;;;3.00;0.00;;;;;19.94;67.11;101468.03;5057492;28;46723;-69
2022/10/02 08:00:19;;;;;;;;;2.50;1.00;;;;;20.09;66.44;101476.94;5065393;28;45371;-69
2022/10/02 08:02:53;;;;;;;;;2.00;0.00;;;;;20.23;66.85;101483.34;5061363;28;45644;-69
2022/10/02 08:05:29;;;;;;;;;0.00;0.00;;;;;20.07;66.07;101443.06;5071233;28;45562;-68
2022/10/02 08:08:01;;;;;;;;;0.75;0.75;;;;;19.86;65.90;101406.06;5067300;28;45779;-69
2022/10/02 08:10:32;;;;;;;;;2.00;2.00;;;;;20.26;65.80;101473.00;5069070;28;45258;-70
2022/10/02 08:13:02;;;;;;;;;2.00;0.00;;;;;20.29;65.69;101464.53;5067287;28;45249;-68
2022/10/02 08:15:33;;;;;;;;;1.00;1.00;;;;;20.59;64.98;101495.00;5066489;28;45495;-69
2022/10/02 08:18:07;;;;;;;;;0.00;0.00;;;;;20.57;64.43;101485.41;5070042;28;46870;-69
2022/10/02 08:20:42;;;;;;;;;0.00;0.00;;;;;20.50;64.81;101501.56;5062481;28;45925;-70
2022/10/02 08:23:30;;;;;;;;;2.33;1.00;;;;;20.48;65.03;101492.81;5068310;28;45481;-70
2022/10/02 08:25:55;;;;;;;;;3.00;1.00;;;;;20.43;64.67;101484.47;5074299;28;45234;-69
2022/10/02 08:28:25;;;;;;;;;2.00;0.00;;;;;20.39;64.70;101503.88;5077047;28;46517;-70
2022/10/02 08:30:51;;;;;;;;;2.00;2.00;;;;;20.33;64.78;101495.53;5068620;28;45347;-71
2022/10/02 08:33:21;;;;;;;;;3.00;3.00;;;;;20.23;65.69;101499.56;5064443;28;45483;-72
2022/10/02 08:36:23;;;;;;;;;1.00;1.00;;;;;20.11;65.52;101474.06;5071025;28;45504;-67
2022/10/02 08:39:09;;;;;;;;;2.25;0.00;;;;;20.09;64.92;101476.94;5051588;28;46528;-69
2022/10/02 08:41:57;;;;;;;;;4.00;2.00;;;;;20.15;65.40;101494.25;5059063;28;45273;-70
2022/10/02 08:44:42;;;;;;;;;4.00;2.00;;;;;20.18;65.53;101508.19;5060332;28;45326;-69
2022/10/02 08:47:31;;;;;;;;;1.00;1.00;;;;;20.21;65.30;101506.97;5064429;28;45406;-69
2022/10/02 08:50:19;;;;;;;;;2.33;2.00;;;;;20.28;65.66;101506.06;5072758;28;46409;-72
2022/10/02 08:53:12;;;;;;;;;1.25;0.75;;;;;19.66;65.82;101395.88;5059917;28;45344;-69
2022/10/02 08:56:16;;;;;;;;;1.00;1.00;;;;;20.40;65.01;101503.69;5067348;28;45396;-69
2022/10/02 08:59:18;;;;;;;;;2.00;2.00;;;;;20.04;64.59;101447.00;5058692;28;45372;-69
2022/10/02 09:01:44;;;;;;;;;3.00;2.00;;;;;20.33;64.73;101514.41;5066279;28;45483;-69
2022/10/02 09:04:27;;;;;;;;;1.25;1.25;;;;;20.30;64.92;101509.41;5058446;28;45409;-69
2022/10/02 09:07:38;;;;;;;;;5.00;1.33;;;;;20.19;65.30;101490.13;5062191;28;45526;-69
2022/10/02 09:10:26;;;;;;;;;3.00;3.00;;;;;19.74;65.49;101425.44;5041896;28;45224;-70
2022/10/02 09:13:22;;;;;;;;;2.00;1.00;;;;;20.15;65.21;101511.28;5059568;27;46620;-73
2022/10/02 09:16:07;;;;;;;;;4.00;3.00;;;;;20.20;65.78;101500.75;5073375;28;45556;-69
2022/10/02 09:18:58;;;;;;;;;2.50;1.25;;;;;20.27;65.79;101512.50;5073202;27;45290;-69
2022/10/02 09:21:27;;;;;;;;;1.00;1.00;;;;;20.37;65.55;101501.38;5055422;28;45298;-69
2022/10/02 09:24:19;;;;;;;;;1.00;1.00;;;;;20.39;65.08;101498.47;5060861;28;45977;-71
2022/10/02 09:26:45;;;;;;;;;2.75;0.00;;;;;20.36;64.96;101494.28;5061130;28;45437;-72
2022/10/02 09:29:13;;;;;;;;;0.00;0.00;;;;;20.35;65.50;101488.06;5070346;27;45158;-71
2022/10/02 09:32:03;;;;;;;;;2.00;2.00;;;;;20.35;65.25;101485.34;5064521;28;45511;-76
2022/10/02 09:34:40;;;;;;;;;0.33;0.33;;;;;20.45;65.33;101492.38;5056084;28;46464;-73
2022/10/02 09:37:27;;;;;;;;;4.00;1.00;;;;;20.52;65.11;101487.88;5064724;28;45245;-77
2022/10/02 09:40:31;;;;;;;;;0.00;0.00;;;;;20.63;64.51;101490.91;5074230;28;45907;-70
2022/10/02 09:43:24;;;;;;;;;0.00;0.00;;;;;20.67;64.26;101496.78;5049227;28;45388;-70
2022/10/02 09:45:58;;;;;;;;;2.00;2.00;;;;;20.76;64.09;101490.19;5050303;28;45747;-70
2022/10/02 09:48:51;;;;;;;;;1.00;1.00;;;;;20.28;64.14;101408.84;5057330;28;45402;-70
2022/10/02 09:51:44;;;;;;;;;0.75;0.75;;;;;20.89;63.92;101489.50;5058800;28;45421;-70
2022/10/02 09:54:56;;;;;;;;;0.50;0.50;;;;;21.01;63.41;101487.09;5038158;28;45590;-69
2022/10/02 09:57:39;;;;;;;;;2.00;1.00;;;;;21.14;63.43;101492.63;5047011;28;45565;-70
2022/10/02 10:00:43;;;;;;;;;3.00;1.00;;;;;21.04;63.07;101474.06;5053104;28;45249;-70
2022/10/02 10:03:27;;;;;;;;;0.00;0.00;;;;;21.26;62.77;101499.22;5036921;28;45532;-69
2022/10/02 10:05:58;;;;;;;;;1.00;0.00;;;;;21.40;62.23;101486.63;5060516;28;45449;-70
2022/10/02 10:08:53;;;;;;;;;0.00;0.00;;;;;20.94;62.13;101400.53;5059648;28;45654;-70
2022/10/02 10:11:37;;;;;;;;;1.00;1.00;;;;;21.73;62.11;101497.66;5059330;28;45502;-69
2022/10/02 10:14:17;;;;;;;;;1.00;0.00;;;;;21.88;60.86;101495.69;5044003;28;45451;-70
2022/10/02 10:16:55;;;;;;;;;1.00;1.00;;;;;21.97;60.51;101489.06;5059541;28;45221;-69
2022/10/02 10:19:40;;;;;;;;;0.00;0.00;;;;;22.03;60.40;101492.84;5058940;28;46437;-69
2022/10/02 10:22:06;;;;;;;;;1.00;1.00;;;;;22.10;60.07;101494.56;5059179;28;45315;-70
2022/10/02 10:24:31;;;;;;;;;0.00;0.00;;;;;22.14;59.67;101493.13;5058922;28;45452;-69
2022/10/02 10:27:05;;;;;;;;;1.00;1.00;;;;;22.21;59.97;101503.16;5058886;28;45442;-69
2022/10/02 10:29:33;;;;;;;;;9.00;9.00;;;;;22.23;59.74;101506.50;5058946;28;46462;-71
2022/10/02 10:32:24;;;;;;;;;1.00;1.00;;;;;22.12;59.69;101497.91;5058722;28;45476;-68
2022/10/02 10:35:23;;;;;;;;;0.50;0.50;;;;;22.11;59.49;101501.66;5058519;28;45311;-71
2022/10/02 10:38:31;;;;;;;;;3.00;0.25;;;;;22.07;59.19;101504.97;5058775;28;45185;-69
2022/10/02 10:41:34;;;;;;;;;0.25;0.25;;;;;22.15;58.88;101494.78;5058751;28;46718;-68
2022/10/02 10:44:28;;;;;;;;;1.25;1.25;;;;;22.20;59.06;101490.63;5058254;27;45372;-68
2022/10/02 10:47:26;;;;;;;;;1.00;1.00;;;;;22.29;58.65;101489.44;5058555;28;45546;-70
2022/10/02 10:50:09;;;;;;;;;0.00;0.00;;;;;22.53;58.04;101488.88;5058137;28;45325;-69
2022/10/02 10:52:54;;;;;;;;;1.00;1.00;;;;;22.56;57.64;101493.91;5074092;28;47644;-68
2022/10/02 10:55:57;;;;;;;;;1.00;1.00;;;;;22.57;57.52;101495.56;5051611;28;45426;-69
2022/10/02 10:58:23;;;;;;;;;1.00;1.00;;;;;22.49;57.32;101493.06;5050900;28;45297;-68
2022/10/02 11:00:58;;;;;;;;;0.00;0.00;;;;;22.28;57.48;101474.22;5074065;28;45515;-70
2022/10/02 11:03:43;;;;;;;;;1.00;1.00;;;;;22.22;57.24;101496.69;5058393;28;47144;-70
2022/10/02 11:06:28;;;;;;;;;0.25;0.25;;;;;22.14;58.12;101492.28;5058133;28;45499;-69
2022/10/02 11:09:38;;;;;;;;;0.00;0.00;;;;;22.04;58.15;101484.56;5057912;28;45453;-69
2022/10/02 11:12:32;;;;;;;;;0.00;0.00;;;;;21.49;57.57;101409.69;5047298;28;45481;-68
2022/10/02 11:15:20;;;;;;;;;2.00;0.50;;;;;21.91;58.03;101484.44;5056965;28;46708;-69
2022/10/02 11:18:22;;;;;;;;;0.33;0.33;;;;;21.84;58.20;101491.72;5057844;28;45455;-70
2022/10/02 11:21:09;;;;;;;;;1.67;1.67;;;;;21.43;58.05;101416.75;5054491;28;45376;-70
2022/10/02 11:23:52;;;;;;;;;1.33;1.33;;;;;21.89;58.11;101486.53;5052737;28;45246;-69
2022/10/02 11:26:43;;;;;;;;;0.00;0.00;;;;;21.94;57.73;101488.63;5057667;28;47098;-69
2022/10/02 11:29:33;;;;;;;;;0.50;0.50;;;;;21.92;58.25;101486.13;5057623;28;45469;-70
2022/10/02 11:32:14;;;;;;;;;1.00;0.00;;;;;21.91;58.42;101497.16;5065098;28;45521;-69
2022/10/02 11:34:54;;;;;;;;;1.00;0.67;;;;;21.86;58.56;101497.75;5058057;28;45343;-70
2022/10/02 11:37:43;;;;;;;;;2.00;0.33;;;;;21.80;58.63;101495.81;5051639;28;46067;-71
2022/10/02 11:40:40;;;;;;;;;0.00;0.00;;;;;21.75;59.24;101490.19;5057717;28;45600;-70
2022/10/02 11:43:21;;;;;;;;;0.00;0.00;;;;;21.78;59.67;101489.78;5057547;28;45331;-71
2022/10/02 11:46:16;;;;;;;;;0.67;0.67;;;;;21.55;58.75;101463.00;5058219;28;45297;-70
2022/10/02 11:49:25;;;;;;;;;1.00;1.00;;;;;21.70;59.21;101488.09;5058680;28;47295;-72
2022/10/02 11:52:11;;;;;;;;;0.00;0.00;;;;;21.72;59.11;101501.41;4995457;28;45551;-69
2022/10/02 11:54:46;;;;;;;;;2.67;1.00;;;;;21.72;58.60;101510.38;5050921;28;45510;-71
2022/10/02 11:57:14;;;;;;;;;1.75;1.75;;;;;21.73;59.65;101520.16;5057393;28;45309;-70
2022/10/02 11:59:52;;;;;;;;;2.00;2.00;;;;;21.28;62.26;101483.63;5057350;28;45701;-69
2022/10/02 12:02:37;;;;;;;;;2.67;2.00;;;;;21.45;64.43;101528.31;5057027;28;45340;-70
2022/10/02 12:05:20;;;;;;;;;0.33;0.33;;;;;20.95;65.62;101456.28;5060304;28;45474;-72
2022/10/02 12:08:00;;;;;;;;;3.00;0.67;;;;;21.47;65.99;101536.22;5063684;28;45458;-70
2022/10/02 12:10:40;;;;;;;;;2.00;2.00;;;;;20.99;66.16;101462.13;5065399;28;45569;-70
2022/10/02 12:13:14;;;;;;;;;0.25;0.25;;;;;21.38;66.91;101530.09;5055851;28;45782;-70
2022/10/02 12:16:09;;;;;;;;;1.67;1.00;;;;;21.43;67.36;101526.81;5062328;28;45196;-70
2022/10/02 12:18:51;;;;;;;;;0.00;0.00;;;;;21.47;67.44;101519.97;5040262;28;45326;-69
2022/10/02 12:27:38;;;;;;;;;1.25;1.25;;;;;21.65;66.54;101516.78;5077598;28;45328;-71
2022/10/02 12:30:12;;;;;;;;;0.50;0.00;;;;;21.72;66.08;101512.25;5077892;28;45526;-71
2022/10/02 12:33:24;;;;;;;;;2.00;1.00;;;;;21.73;66.02;101513.91;5077888;28;46415;-70